AFL1638 USTR-UNNT
Flight info
| Callsign | AFL1638 |
|---|---|
| Flight time | 1h 25m |
| Altitude | 35000 |
| Route | NAPOR1H NAPOR T448 RUBOR A300 ML R814 SZ W1 GOLIM GOLIM1A |
| Aircraft | T154/M-SDGRWY/S |
Departure
| Time | 2026-04-23 13:05 |
|---|---|
| Airport | Roshchino International Airport (USTR) |
Arrival
| Time | 2026-04-23 14:31 |
|---|---|
| Airport | Novosibirsk Tolmachevo Airport (UNNT) |
| Time | Latitude | Longitude | Altitude | Speed | Heading |
|---|---|---|---|---|---|
| 2026-04-23 12:31 | 57.18075 | 65.34789 | 333 ft | 0 kts | 45° |
| 2026-04-23 12:50 | 57.18066 | 65.34772 | 333 ft | 2 kts | 45° |
| 2026-04-23 12:50 | 57.18059 | 65.34759 | 333 ft | 2 kts | 43° |
| 2026-04-23 12:51 | 57.18047 | 65.34745 | 333 ft | 2 kts | 22° |
| 2026-04-23 12:51 | 57.18033 | 65.34737 | 333 ft | 2 kts | 7° |
| 2026-04-23 12:51 | 57.18018 | 65.34738 | 334 ft | 2 kts | 351° |
| 2026-04-23 12:51 | 57.18004 | 65.34746 | 334 ft | 2 kts | 335° |
| 2026-04-23 12:52 | 57.17991 | 65.34760 | 334 ft | 2 kts | 319° |
| 2026-04-23 12:52 | 57.17987 | 65.34769 | 334 ft | 1 kts | 313° |
| 2026-04-23 12:52 | 57.17986 | 65.34771 | 334 ft | 0 kts | 314° |
| 2026-04-23 12:53 | 57.17986 | 65.34770 | 334 ft | 0 kts | 314° |
| 2026-04-23 12:55 | 57.17987 | 65.34769 | 334 ft | 0 kts | 315° |
| 2026-04-23 12:56 | 57.17989 | 65.34766 | 334 ft | 0 kts | 317° |
| 2026-04-23 12:56 | 57.18019 | 65.34712 | 334 ft | 10 kts | 316° |
| 2026-04-23 12:56 | 57.18079 | 65.34609 | 333 ft | 12 kts | 314° |
| 2026-04-23 12:56 | 57.18142 | 65.34481 | 331 ft | 14 kts | 311° |
| 2026-04-23 12:57 | 57.18217 | 65.34341 | 329 ft | 16 kts | 318° |
| 2026-04-23 12:57 | 57.18308 | 65.34202 | 328 ft | 15 kts | 310° |
| 2026-04-23 12:57 | 57.18365 | 65.34072 | 326 ft | 8 kts | 314° |
| 2026-04-23 12:57 | 57.18367 | 65.34068 | 326 ft | 0 kts | 314° |
| 2026-04-23 12:58 | 57.18373 | 65.34056 | 326 ft | 3 kts | 313° |
| 2026-04-23 12:58 | 57.18401 | 65.34003 | 325 ft | 8 kts | 314° |
| 2026-04-23 12:58 | 57.18460 | 65.33892 | 322 ft | 15 kts | 314° |
| 2026-04-23 12:59 | 57.18549 | 65.33726 | 319 ft | 20 kts | 314° |
| 2026-04-23 12:59 | 57.18609 | 65.33607 | 318 ft | 9 kts | 302° |
| 2026-04-23 12:59 | 57.18619 | 65.33496 | 319 ft | 8 kts | 266° |
| 2026-04-23 12:59 | 57.18615 | 65.33389 | 320 ft | 8 kts | 269° |
| 2026-04-23 13:00 | 57.18593 | 65.33312 | 321 ft | 6 kts | 221° |
| 2026-04-23 13:00 | 57.18560 | 65.33260 | 322 ft | 5 kts | 220° |
| 2026-04-23 13:00 | 57.18538 | 65.33225 | 324 ft | 3 kts | 220° |
| 2026-04-23 13:00 | 57.18524 | 65.33202 | 325 ft | 2 kts | 220° |
| 2026-04-23 13:01 | 57.18504 | 65.33170 | 327 ft | 5 kts | 226° |
| 2026-04-23 13:01 | 57.18478 | 65.33043 | 329 ft | 13 kts | 266° |
| 2026-04-23 13:01 | 57.18473 | 65.32879 | 331 ft | 12 kts | 267° |
| 2026-04-23 13:01 | 57.18473 | 65.32737 | 334 ft | 10 kts | 272° |
| 2026-04-23 13:02 | 57.18470 | 65.32610 | 335 ft | 9 kts | 266° |
| 2026-04-23 13:02 | 57.18465 | 65.32477 | 336 ft | 10 kts | 266° |
| 2026-04-23 13:02 | 57.18462 | 65.32349 | 338 ft | 10 kts | 267° |
| 2026-04-23 13:02 | 57.18465 | 65.32209 | 339 ft | 12 kts | 277° |
| 2026-04-23 13:03 | 57.18530 | 65.32079 | 338 ft | 15 kts | 324° |
| 2026-04-23 13:03 | 57.18612 | 65.31938 | 337 ft | 16 kts | 316° |
| 2026-04-23 13:03 | 57.18690 | 65.31799 | 337 ft | 13 kts | 310° |
| 2026-04-23 13:03 | 57.18701 | 65.31718 | 338 ft | 4 kts | 243° |
| 2026-04-23 13:04 | 57.18691 | 65.31692 | 339 ft | 0 kts | 220° |
| 2026-04-23 13:04 | 57.18688 | 65.31686 | 339 ft | 0 kts | 230° |
| 2026-04-23 13:04 | 57.18666 | 65.31639 | 341 ft | 28 kts | 228° |
| 2026-04-23 13:05 | 57.18315 | 65.30931 | 354 ft | 117 kts | 228° |
| 2026-04-23 13:05 | 57.17618 | 65.29512 | 446 ft | 177 kts | 226° |
| 2026-04-23 13:05 | 57.16731 | 65.27705 | 924 ft | 205 kts | 227° |
| 2026-04-23 13:05 | 57.15648 | 65.25592 | 1213 ft | 254 kts | 224° |
| 2026-04-23 13:06 | 57.13785 | 65.19800 | 3584 ft | 259 kts | 266° |
| 2026-04-23 13:06 | 57.14223 | 65.16676 | 4422 ft | 268 kts | 298° |
| 2026-04-23 13:06 | 57.15618 | 65.14592 | 5309 ft | 270 kts | 340° |
| 2026-04-23 13:07 | 57.17523 | 65.14658 | 6234 ft | 293 kts | 16° |
| 2026-04-23 13:07 | 57.19281 | 65.16521 | 7151 ft | 301 kts | 44° |
| 2026-04-23 13:07 | 57.20488 | 65.19662 | 7812 ft | 301 kts | 70° |
| 2026-04-23 13:07 | 57.20882 | 65.23381 | 8409 ft | 290 kts | 96° |
| 2026-04-23 13:08 | 57.20799 | 65.26873 | 9917 ft | 275 kts | 92° |
| 2026-04-23 13:08 | 57.20878 | 65.30351 | 11070 ft | 281 kts | 88° |
| 2026-04-23 13:08 | 57.21049 | 65.33997 | 12066 ft | 294 kts | 85° |
| 2026-04-23 13:08 | 57.21196 | 65.37756 | 13005 ft | 305 kts | 99° |
| 2026-04-23 13:09 | 57.20767 | 65.41569 | 14092 ft | 309 kts | 108° |
| 2026-04-23 13:09 | 57.20259 | 65.45338 | 15604 ft | 302 kts | 107° |
| 2026-04-23 13:09 | 57.19794 | 65.49002 | 16950 ft | 299 kts | 108° |
| 2026-04-23 13:09 | 57.19292 | 65.52724 | 17991 ft | 309 kts | 108° |
| 2026-04-23 13:10 | 57.18776 | 65.56641 | 18836 ft | 323 kts | 107° |
| 2026-04-23 13:10 | 57.18256 | 65.60728 | 19642 ft | 341 kts | 107° |
| 2026-04-23 13:10 | 57.17698 | 65.65160 | 19974 ft | 373 kts | 107° |
| 2026-04-23 13:10 | 57.17109 | 65.69867 | 20587 ft | 383 kts | 107° |
| 2026-04-23 13:11 | 57.16515 | 65.74628 | 21299 ft | 385 kts | 107° |
| 2026-04-23 13:11 | 57.15908 | 65.79419 | 21906 ft | 389 kts | 107° |
| 2026-04-23 13:11 | 57.15286 | 65.84280 | 22559 ft | 392 kts | 107° |
| 2026-04-23 13:11 | 57.14654 | 65.89204 | 23193 ft | 395 kts | 108° |
| 2026-04-23 13:12 | 57.14017 | 65.94134 | 23802 ft | 399 kts | 108° |
| 2026-04-23 13:12 | 57.13376 | 65.99098 | 24399 ft | 403 kts | 108° |
| 2026-04-23 13:12 | 57.12726 | 66.04096 | 24961 ft | 407 kts | 108° |
| 2026-04-23 13:12 | 57.12058 | 66.09215 | 25489 ft | 411 kts | 108° |
| 2026-04-23 13:13 | 57.11414 | 66.14297 | 25990 ft | 417 kts | 105° |
| 2026-04-23 13:13 | 57.10985 | 66.19613 | 26495 ft | 423 kts | 100° |
| 2026-04-23 13:13 | 57.10665 | 66.24946 | 26976 ft | 428 kts | 100° |
| 2026-04-23 13:13 | 57.10308 | 66.30411 | 27470 ft | 431 kts | 101° |
| 2026-04-23 13:14 | 57.09930 | 66.35850 | 27954 ft | 435 kts | 101° |
| 2026-04-23 13:14 | 57.09540 | 66.41380 | 28434 ft | 438 kts | 101° |
| 2026-04-23 13:14 | 57.09144 | 66.46936 | 28899 ft | 442 kts | 101° |
| 2026-04-23 13:14 | 57.08741 | 66.52563 | 29342 ft | 446 kts | 101° |
| 2026-04-23 13:15 | 57.08330 | 66.58243 | 29770 ft | 451 kts | 101° |
| 2026-04-23 13:15 | 57.07917 | 66.63930 | 30164 ft | 455 kts | 101° |
| 2026-04-23 13:15 | 57.07494 | 66.69720 | 30495 ft | 460 kts | 101° |
| 2026-04-23 13:15 | 57.07069 | 66.75503 | 30857 ft | 464 kts | 101° |
| 2026-04-23 13:16 | 57.06634 | 66.81391 | 31199 ft | 467 kts | 101° |
| 2026-04-23 13:16 | 57.06198 | 66.87244 | 31477 ft | 469 kts | 101° |
| 2026-04-23 13:16 | 57.05748 | 66.93200 | 31788 ft | 470 kts | 102° |
| 2026-04-23 13:16 | 57.05255 | 66.99120 | 32060 ft | 471 kts | 102° |
| 2026-04-23 13:17 | 57.04742 | 67.05007 | 32291 ft | 473 kts | 102° |
| 2026-04-23 13:17 | 57.04225 | 67.10966 | 32511 ft | 475 kts | 102° |
| 2026-04-23 13:17 | 57.03706 | 67.16971 | 32735 ft | 477 kts | 102° |
| 2026-04-23 13:17 | 57.03187 | 67.22958 | 32965 ft | 478 kts | 102° |
| 2026-04-23 13:18 | 57.02668 | 67.28912 | 33167 ft | 479 kts | 102° |
| 2026-04-23 13:18 | 57.02137 | 67.34964 | 33384 ft | 480 kts | 102° |
| 2026-04-23 13:18 | 57.01607 | 67.40971 | 33594 ft | 482 kts | 102° |
| 2026-04-23 13:18 | 57.01071 | 67.47003 | 33789 ft | 483 kts | 102° |
| 2026-04-23 13:19 | 57.00529 | 67.53087 | 34007 ft | 484 kts | 102° |
| 2026-04-23 13:19 | 56.99989 | 67.59107 | 34227 ft | 485 kts | 102° |
| 2026-04-23 13:19 | 56.99436 | 67.65236 | 34414 ft | 486 kts | 103° |
| 2026-04-23 13:19 | 56.98879 | 67.71376 | 34549 ft | 489 kts | 103° |
| 2026-04-23 13:20 | 56.98327 | 67.77453 | 34704 ft | 491 kts | 102° |
| 2026-04-23 13:20 | 56.97177 | 67.89938 | 34873 ft | 509 kts | 102° |
| 2026-04-23 13:20 | 56.96581 | 67.96356 | 34810 ft | 520 kts | 102° |
| 2026-04-23 13:21 | 56.95971 | 68.02894 | 34835 ft | 520 kts | 102° |
| 2026-04-23 13:21 | 56.94750 | 68.15868 | 34866 ft | 520 kts | 102° |
| 2026-04-23 13:22 | 56.93510 | 68.28884 | 34874 ft | 519 kts | 102° |
| 2026-04-23 13:22 | 56.92267 | 68.41782 | 34822 ft | 517 kts | 102° |
| 2026-04-23 13:23 | 56.91004 | 68.54731 | 34857 ft | 518 kts | 102° |
| 2026-04-23 13:23 | 56.89733 | 68.67598 | 34856 ft | 518 kts | 103° |
| 2026-04-23 13:24 | 56.88408 | 68.80597 | 34838 ft | 518 kts | 103° |
| 2026-04-23 13:24 | 56.87107 | 68.93436 | 34864 ft | 518 kts | 103° |
| 2026-04-23 13:25 | 56.85789 | 69.06348 | 34881 ft | 519 kts | 103° |
| 2026-04-23 13:25 | 56.84458 | 69.19270 | 34882 ft | 519 kts | 103° |
| 2026-04-23 13:26 | 56.83116 | 69.32162 | 34888 ft | 519 kts | 103° |
| 2026-04-23 13:26 | 56.81760 | 69.45044 | 34893 ft | 519 kts | 103° |
| 2026-04-23 13:27 | 56.80392 | 69.57909 | 34892 ft | 518 kts | 103° |
| 2026-04-23 13:27 | 56.79020 | 69.70688 | 34860 ft | 518 kts | 104° |
| 2026-04-23 13:28 | 56.77636 | 69.83484 | 34872 ft | 518 kts | 104° |
| 2026-04-23 13:28 | 56.76229 | 69.96320 | 34884 ft | 518 kts | 104° |
| 2026-04-23 13:29 | 56.74809 | 70.09142 | 34890 ft | 518 kts | 104° |
| 2026-04-23 13:29 | 56.73378 | 70.21932 | 34894 ft | 518 kts | 104° |
| 2026-04-23 13:30 | 56.71847 | 70.34701 | 34901 ft | 517 kts | 105° |
| 2026-04-23 13:30 | 56.70284 | 70.47423 | 34909 ft | 518 kts | 105° |
| 2026-04-23 13:31 | 56.68708 | 70.60204 | 34911 ft | 518 kts | 105° |
| 2026-04-23 13:31 | 56.67141 | 70.72832 | 34875 ft | 518 kts | 106° |
| 2026-04-23 13:32 | 56.65546 | 70.85574 | 34890 ft | 518 kts | 107° |
| 2026-04-23 13:32 | 56.63940 | 70.98267 | 34900 ft | 518 kts | 106° |
| 2026-04-23 13:33 | 56.62324 | 71.10926 | 34904 ft | 519 kts | 107° |
| 2026-04-23 13:33 | 56.60689 | 71.23616 | 34906 ft | 518 kts | 107° |
| 2026-04-23 13:34 | 56.59040 | 71.36309 | 34907 ft | 519 kts | 107° |
| 2026-04-23 13:34 | 56.57379 | 71.48976 | 34903 ft | 518 kts | 107° |
| 2026-04-23 13:35 | 56.55712 | 71.61588 | 34906 ft | 517 kts | 107° |
| 2026-04-23 13:35 | 56.54023 | 71.74277 | 34880 ft | 519 kts | 107° |
| 2026-04-23 13:36 | 56.52335 | 71.86862 | 34893 ft | 518 kts | 108° |
| 2026-04-23 13:36 | 56.50618 | 71.99517 | 34901 ft | 520 kts | 107° |
| 2026-04-23 13:37 | 56.48891 | 72.12150 | 34900 ft | 519 kts | 108° |
| 2026-04-23 13:37 | 56.47149 | 72.24787 | 34904 ft | 519 kts | 108° |
| 2026-04-23 13:38 | 56.45402 | 72.37350 | 34900 ft | 519 kts | 108° |
| 2026-04-23 13:38 | 56.43639 | 72.49925 | 34901 ft | 519 kts | 108° |
| 2026-04-23 13:39 | 56.41860 | 72.62518 | 34903 ft | 519 kts | 108° |
| 2026-04-23 13:39 | 56.40069 | 72.75118 | 34873 ft | 518 kts | 108° |
| 2026-04-23 13:40 | 56.38278 | 72.87615 | 34886 ft | 518 kts | 109° |
| 2026-04-23 13:40 | 56.36461 | 73.00169 | 34891 ft | 518 kts | 109° |
| 2026-04-23 13:41 | 56.34640 | 73.12646 | 34896 ft | 518 kts | 109° |
| 2026-04-23 13:41 | 56.32806 | 73.25126 | 34896 ft | 519 kts | 109° |
| 2026-04-23 13:42 | 56.30957 | 73.37601 | 34897 ft | 518 kts | 109° |
| 2026-04-23 13:42 | 56.29089 | 73.50108 | 34895 ft | 518 kts | 109° |
| 2026-04-23 13:43 | 56.27222 | 73.62517 | 34897 ft | 518 kts | 109° |
| 2026-04-23 13:43 | 56.25333 | 73.75005 | 34866 ft | 517 kts | 110° |
| 2026-04-23 13:44 | 56.23445 | 73.87377 | 34889 ft | 518 kts | 110° |
| 2026-04-23 13:44 | 56.21426 | 73.99725 | 34890 ft | 514 kts | 113° |
| 2026-04-23 13:45 | 56.19217 | 74.11945 | 34894 ft | 515 kts | 112° |
| 2026-04-23 13:45 | 56.17029 | 74.24129 | 34890 ft | 516 kts | 112° |
| 2026-04-23 13:46 | 56.14832 | 74.36301 | 34886 ft | 515 kts | 112° |
| 2026-04-23 13:46 | 56.12628 | 74.48436 | 34888 ft | 514 kts | 112° |
| 2026-04-23 13:47 | 56.10416 | 74.60523 | 34884 ft | 514 kts | 112° |
| 2026-04-23 13:47 | 56.08177 | 74.72710 | 34859 ft | 515 kts | 113° |
| 2026-04-23 13:48 | 56.05940 | 74.84821 | 34875 ft | 515 kts | 114° |
| 2026-04-23 13:48 | 56.03690 | 74.96886 | 34882 ft | 515 kts | 114° |
| 2026-04-23 13:49 | 56.01424 | 75.08971 | 34887 ft | 513 kts | 114° |
| 2026-04-23 13:49 | 55.99149 | 75.21012 | 34894 ft | 513 kts | 114° |
| 2026-04-23 13:50 | 55.96869 | 75.33015 | 34902 ft | 512 kts | 114° |
| 2026-04-23 13:50 | 55.94585 | 75.44954 | 34911 ft | 511 kts | 114° |
| 2026-04-23 13:51 | 55.92283 | 75.56918 | 34906 ft | 511 kts | 114° |
| 2026-04-23 13:51 | 55.89972 | 75.68858 | 34882 ft | 510 kts | 115° |
| 2026-04-23 13:52 | 55.87643 | 75.80703 | 34870 ft | 509 kts | 115° |
| 2026-04-23 13:52 | 55.85301 | 75.92596 | 34893 ft | 512 kts | 115° |
| 2026-04-23 13:53 | 55.82959 | 76.04472 | 34896 ft | 510 kts | 115° |
| 2026-04-23 13:53 | 55.80615 | 76.16278 | 34903 ft | 508 kts | 115° |
| 2026-04-23 13:54 | 55.78252 | 76.28110 | 34908 ft | 510 kts | 116° |
| 2026-04-23 13:54 | 55.75883 | 76.39915 | 34915 ft | 508 kts | 116° |
| 2026-04-23 13:55 | 55.73502 | 76.51698 | 34921 ft | 508 kts | 116° |
| 2026-04-23 13:55 | 55.71113 | 76.63448 | 34956 ft | 512 kts | 116° |
| 2026-04-23 13:56 | 55.68719 | 76.75200 | 34896 ft | 508 kts | 117° |
| 2026-04-23 13:56 | 55.66307 | 76.86942 | 34904 ft | 510 kts | 117° |
| 2026-04-23 13:57 | 55.63891 | 76.98638 | 34907 ft | 507 kts | 117° |
| 2026-04-23 13:57 | 55.61467 | 77.10281 | 34913 ft | 509 kts | 117° |
| 2026-04-23 13:58 | 55.59027 | 77.21945 | 34916 ft | 506 kts | 118° |
| 2026-04-23 13:58 | 55.56558 | 77.33671 | 34918 ft | 509 kts | 118° |
| 2026-04-23 13:59 | 55.54087 | 77.45343 | 34914 ft | 506 kts | 118° |
| 2026-04-23 13:59 | 55.51609 | 77.56983 | 34958 ft | 506 kts | 118° |
| 2026-04-23 14:00 | 55.49542 | 77.66640 | 35076 ft | 509 kts | 119° |
| 2026-04-23 14:00 | 55.46644 | 77.80161 | 35021 ft | 507 kts | 119° |
| 2026-04-23 14:01 | 55.44127 | 77.91789 | 35025 ft | 507 kts | 119° |
| 2026-04-23 14:01 | 55.41598 | 78.03403 | 35036 ft | 507 kts | 119° |
| 2026-04-23 14:02 | 55.39055 | 78.15010 | 35021 ft | 509 kts | 119° |
| 2026-04-23 14:02 | 55.36521 | 78.26524 | 35018 ft | 507 kts | 119° |
| 2026-04-23 14:02 | 55.35429 | 78.32461 | 35000 ft | 519 kts | 109° |
| 2026-04-23 14:03 | 55.34919 | 78.38702 | 35005 ft | 524 kts | 103° |
| 2026-04-23 14:03 | 55.34008 | 78.51393 | 35019 ft | 522 kts | 105° |
| 2026-04-23 14:04 | 55.32993 | 78.63959 | 35017 ft | 522 kts | 105° |
| 2026-04-23 14:04 | 55.31965 | 78.76585 | 34983 ft | 520 kts | 106° |
| 2026-04-23 14:05 | 55.30924 | 78.89111 | 34995 ft | 521 kts | 106° |
| 2026-04-23 14:05 | 55.29864 | 79.01688 | 34996 ft | 523 kts | 106° |
| 2026-04-23 14:06 | 55.28795 | 79.14245 | 34992 ft | 523 kts | 107° |
| 2026-04-23 14:06 | 55.27712 | 79.26780 | 34994 ft | 523 kts | 106° |
| 2026-04-23 14:07 | 55.26611 | 79.39379 | 35002 ft | 520 kts | 106° |
| 2026-04-23 14:07 | 55.25503 | 79.51892 | 34899 ft | 520 kts | 107° |
| 2026-04-23 14:07 | 55.24948 | 79.58124 | 34894 ft | 518 kts | 107° |
| 2026-04-23 14:08 | 55.23824 | 79.70568 | 34900 ft | 522 kts | 107° |
| 2026-04-23 14:08 | 55.22692 | 79.83069 | 34912 ft | 520 kts | 107° |
| 2026-04-23 14:09 | 55.21565 | 79.95392 | 34854 ft | 503 kts | 107° |
| 2026-04-23 14:09 | 55.21008 | 80.01382 | 34666 ft | 498 kts | 108° |
| 2026-04-23 14:09 | 55.20457 | 80.07251 | 34396 ft | 493 kts | 107° |
| 2026-04-23 14:10 | 55.19906 | 80.13105 | 34133 ft | 488 kts | 107° |
| 2026-04-23 14:10 | 55.19353 | 80.18958 | 33871 ft | 483 kts | 107° |
| 2026-04-23 14:10 | 55.18810 | 80.24667 | 33613 ft | 479 kts | 107° |
| 2026-04-23 14:10 | 55.18260 | 80.30431 | 33356 ft | 474 kts | 107° |
| 2026-04-23 14:11 | 55.17721 | 80.36019 | 33072 ft | 473 kts | 107° |
| 2026-04-23 14:11 | 55.17172 | 80.41657 | 32723 ft | 473 kts | 107° |
| 2026-04-23 14:11 | 55.16625 | 80.47299 | 32398 ft | 470 kts | 107° |
| 2026-04-23 14:11 | 55.16080 | 80.52917 | 32094 ft | 466 kts | 107° |
| 2026-04-23 14:12 | 55.15537 | 80.58472 | 31783 ft | 463 kts | 106° |
| 2026-04-23 14:12 | 55.14993 | 80.63972 | 31486 ft | 461 kts | 107° |
| 2026-04-23 14:12 | 55.14449 | 80.69475 | 31139 ft | 459 kts | 107° |
| 2026-04-23 14:12 | 55.13913 | 80.74886 | 30771 ft | 456 kts | 107° |
| 2026-04-23 14:13 | 55.13367 | 80.80387 | 30411 ft | 453 kts | 107° |
| 2026-04-23 14:13 | 55.12834 | 80.85720 | 30076 ft | 450 kts | 107° |
| 2026-04-23 14:13 | 55.12286 | 80.91129 | 29727 ft | 450 kts | 106° |
| 2026-04-23 14:13 | 55.11768 | 80.96495 | 29305 ft | 451 kts | 103° |
| 2026-04-23 14:14 | 55.11633 | 81.02002 | 28762 ft | 459 kts | 94° |
| 2026-04-23 14:14 | 55.11726 | 81.07529 | 28217 ft | 458 kts | 94° |
| 2026-04-23 14:14 | 55.11787 | 81.13017 | 27617 ft | 454 kts | 94° |
| 2026-04-23 14:14 | 55.11814 | 81.18461 | 27030 ft | 449 kts | 94° |
| 2026-04-23 14:15 | 55.11828 | 81.23920 | 26352 ft | 447 kts | 94° |
| 2026-04-23 14:15 | 55.11841 | 81.29240 | 25343 ft | 441 kts | 94° |
| 2026-04-23 14:15 | 55.11852 | 81.34560 | 24268 ft | 435 kts | 93° |
| 2026-04-23 14:15 | 55.11859 | 81.39719 | 23307 ft | 425 kts | 94° |
| 2026-04-23 14:16 | 55.11863 | 81.44810 | 22365 ft | 417 kts | 94° |
| 2026-04-23 14:16 | 55.11865 | 81.49857 | 21374 ft | 410 kts | 93° |
| 2026-04-23 14:16 | 55.11866 | 81.54671 | 20428 ft | 403 kts | 93° |
| 2026-04-23 14:16 | 55.11864 | 81.59539 | 19451 ft | 397 kts | 93° |
| 2026-04-23 14:17 | 55.11860 | 81.64283 | 18467 ft | 391 kts | 93° |
| 2026-04-23 14:17 | 55.11854 | 81.68964 | 17424 ft | 386 kts | 94° |
| 2026-04-23 14:17 | 55.11847 | 81.73550 | 16337 ft | 383 kts | 93° |
| 2026-04-23 14:17 | 55.11838 | 81.78146 | 15220 ft | 380 kts | 93° |
| 2026-04-23 14:18 | 55.11827 | 81.82733 | 14092 ft | 376 kts | 92° |
| 2026-04-23 14:18 | 55.11814 | 81.87217 | 13000 ft | 372 kts | 92° |
| 2026-04-23 14:18 | 55.11800 | 81.91675 | 11920 ft | 367 kts | 92° |
| 2026-04-23 14:18 | 55.11785 | 81.96062 | 10883 ft | 361 kts | 92° |
| 2026-04-23 14:19 | 55.11769 | 82.00378 | 9836 ft | 356 kts | 93° |
| 2026-04-23 14:19 | 55.11750 | 82.04654 | 8824 ft | 350 kts | 92° |
| 2026-04-23 14:19 | 55.11732 | 82.08809 | 7842 ft | 343 kts | 92° |
| 2026-04-23 14:19 | 55.11713 | 82.12837 | 7509 ft | 316 kts | 91° |
| 2026-04-23 14:20 | 55.11695 | 82.16502 | 7597 ft | 300 kts | 92° |
| 2026-04-23 14:20 | 55.11674 | 82.20083 | 7635 ft | 294 kts | 92° |
| 2026-04-23 14:20 | 55.11650 | 82.23716 | 7625 ft | 295 kts | 92° |
| 2026-04-23 14:20 | 55.11628 | 82.27276 | 7590 ft | 298 kts | 91° |
| 2026-04-23 14:21 | 55.11606 | 82.30823 | 7555 ft | 294 kts | 92° |
| 2026-04-23 14:21 | 55.11582 | 82.34426 | 7571 ft | 294 kts | 91° |
| 2026-04-23 14:21 | 55.11557 | 82.38059 | 7455 ft | 301 kts | 91° |
| 2026-04-23 14:21 | 55.11533 | 82.41667 | 7342 ft | 295 kts | 91° |
| 2026-04-23 14:22 | 55.11717 | 82.45199 | 7230 ft | 294 kts | 78° |
| 2026-04-23 14:22 | 55.12167 | 82.48677 | 7086 ft | 295 kts | 76° |
| 2026-04-23 14:22 | 55.12612 | 82.52147 | 6939 ft | 293 kts | 77° |
| 2026-04-23 14:22 | 55.13020 | 82.55621 | 6770 ft | 290 kts | 78° |
| 2026-04-23 14:23 | 55.13467 | 82.59071 | 6628 ft | 290 kts | 73° |
| 2026-04-23 14:23 | 55.14036 | 82.62395 | 6432 ft | 284 kts | 71° |
| 2026-04-23 14:23 | 55.14620 | 82.65713 | 6043 ft | 286 kts | 73° |
| 2026-04-23 14:23 | 55.15167 | 82.68974 | 5496 ft | 284 kts | 73° |
| 2026-04-23 14:24 | 55.15707 | 82.72265 | 4900 ft | 279 kts | 74° |
| 2026-04-23 14:24 | 55.15997 | 82.75484 | 4743 ft | 259 kts | 89° |
| 2026-04-23 14:24 | 55.15992 | 82.78583 | 4527 ft | 254 kts | 91° |
| 2026-04-23 14:24 | 55.15982 | 82.81637 | 4342 ft | 249 kts | 89° |
| 2026-04-23 14:25 | 55.16008 | 82.84619 | 4448 ft | 251 kts | 89° |
| 2026-04-23 14:25 | 55.15973 | 82.87605 | 4615 ft | 246 kts | 100° |
| 2026-04-23 14:25 | 55.15346 | 82.90442 | 4788 ft | 242 kts | 128° |
| 2026-04-23 14:25 | 55.14111 | 82.92353 | 4926 ft | 236 kts | 160° |
| 2026-04-23 14:26 | 55.12637 | 82.92831 | 4965 ft | 202 kts | 190° |
| 2026-04-23 14:26 | 55.11252 | 82.92542 | 4958 ft | 200 kts | 197° |
| 2026-04-23 14:26 | 55.10292 | 82.91116 | 4926 ft | 178 kts | 243° |
| 2026-04-23 14:26 | 55.09441 | 82.89475 | 5098 ft | 186 kts | 218° |
| 2026-04-23 14:27 | 55.08192 | 82.88716 | 5247 ft | 195 kts | 196° |
| 2026-04-23 14:27 | 55.06856 | 82.88435 | 5232 ft | 207 kts | 193° |
| 2026-04-23 14:27 | 55.05373 | 82.88145 | 4031 ft | 216 kts | 192° |
| 2026-04-23 14:27 | 55.04022 | 82.87687 | 3300 ft | 194 kts | 217° |
| 2026-04-23 14:28 | 55.03207 | 82.86009 | 2242 ft | 190 kts | 243° |
| 2026-04-23 14:28 | 55.02725 | 82.84084 | 1973 ft | 168 kts | 263° |
| 2026-04-23 14:28 | 55.02670 | 82.81958 | 1942 ft | 175 kts | 273° |
| 2026-04-23 14:28 | 55.02615 | 82.79953 | 1743 ft | 154 kts | 265° |
| 2026-04-23 14:29 | 55.02452 | 82.78136 | 1577 ft | 149 kts | 263° |
| 2026-04-23 14:29 | 55.02292 | 82.76485 | 1354 ft | 138 kts | 264° |
| 2026-04-23 14:29 | 55.02137 | 82.74825 | 1175 ft | 137 kts | 263° |
| 2026-04-23 14:29 | 55.01970 | 82.73150 | 980 ft | 139 kts | 264° |
| 2026-04-23 14:30 | 55.01814 | 82.71480 | 775 ft | 141 kts | 263° |
| 2026-04-23 14:30 | 55.01659 | 82.69804 | 589 ft | 142 kts | 263° |
| 2026-04-23 14:30 | 55.01515 | 82.68104 | 436 ft | 142 kts | 265° |
| 2026-04-23 14:30 | 55.01386 | 82.66584 | 357 ft | 110 kts | 261° |
| 2026-04-23 14:31 | 55.01286 | 82.65509 | 357 ft | 62 kts | 261° |
| 2026-04-23 14:31 | 55.01249 | 82.65131 | 357 ft | 14 kts | 261° |
| 2026-04-23 14:31 | 55.01223 | 82.65070 | 357 ft | 6 kts | 201° |
| 2026-04-23 14:31 | 55.01177 | 82.65059 | 357 ft | 7 kts | 171° |
| 2026-04-23 14:32 | 55.01122 | 82.65075 | 357 ft | 8 kts | 169° |
| 2026-04-23 14:32 | 55.01076 | 82.65089 | 357 ft | 6 kts | 174° |
| 2026-04-23 14:32 | 55.01026 | 82.65097 | 357 ft | 4 kts | 148° |
| 2026-04-23 14:32 | 55.00998 | 82.65108 | 357 ft | 5 kts | 176° |
| 2026-04-23 14:33 | 55.00954 | 82.65117 | 357 ft | 7 kts | 173° |
| 2026-04-23 14:33 | 55.00895 | 82.65136 | 357 ft | 9 kts | 145° |
| 2026-04-23 14:33 | 55.00876 | 82.65216 | 357 ft | 7 kts | 81° |
| 2026-04-23 14:33 | 55.00887 | 82.65320 | 358 ft | 8 kts | 79° |
| 2026-04-23 14:34 | 55.00900 | 82.65431 | 359 ft | 10 kts | 82° |
| 2026-04-23 14:34 | 55.00909 | 82.65562 | 360 ft | 12 kts | 84° |
| 2026-04-23 14:34 | 55.00924 | 82.65720 | 361 ft | 13 kts | 81° |
| 2026-04-23 14:34 | 55.00940 | 82.65899 | 361 ft | 16 kts | 81° |
| 2026-04-23 14:35 | 55.00960 | 82.66108 | 361 ft | 18 kts | 80° |
| 2026-04-23 14:35 | 55.00996 | 82.66291 | 360 ft | 12 kts | 59° |
| 2026-04-23 14:35 | 55.01020 | 82.66357 | 360 ft | 5 kts | 74° |
| 2026-04-23 14:35 | 55.01034 | 82.66432 | 360 ft | 7 kts | 70° |
| 2026-04-23 14:36 | 55.01055 | 82.66530 | 359 ft | 10 kts | 67° |
| 2026-04-23 14:36 | 55.01087 | 82.66663 | 358 ft | 12 kts | 70° |
| 2026-04-23 14:36 | 55.01095 | 82.66761 | 358 ft | 3 kts | 120° |
| 2026-04-23 14:36 | 55.01082 | 82.66769 | 359 ft | 2 kts | 186° |
| 2026-04-23 14:37 | 55.01060 | 82.66760 | 359 ft | 3 kts | 192° |
| 2026-04-23 14:37 | 55.01040 | 82.66756 | 359 ft | 2 kts | 179° |
| 2026-04-23 14:37 | 55.01031 | 82.66758 | 359 ft | 0 kts | 171° |
| 2026-04-23 14:37 | 55.01030 | 82.66758 | 359 ft | 0 kts | 171° |
| 2026-04-23 14:38 | 55.01030 | 82.66759 | 359 ft | 0 kts | 172° |